Grand Isle, Maine
Current Conditions -  °F | °C
As of 12:53 AM on Wednesday 22 Oct 2014 (Local Time) from KFVE Reporting Station
Overcast Overcast  
Wind Chill: 32°   Ceiling: 6000
Heat Index: 37°   Visibility: 10mi
Dew Point: 28°   Wind: 7mph
Humidity: 70%   Direction: 20°NNE
Pressure: 30.3"   Gusts: NA
Location:  47.31°N, 68.15°W
Report Text: KFVE 220453Z AUTO 02006KT 10SM OVC060 03/M02 A3030 RMK AO2 SLP267 T00281022 400721033
Loading
Personal Weather Stations






























Interactive Weather Map
Tropical Storm Tracking
New forecast layout! Learn more

10-Day Weather Forecast

Advertisements
Track Severe Weather on mobile